createdAt,value
2017-09-09T00:00:54.042Z,977.93
2017-09-09T00:01:53.931Z,977.93
2017-09-09T00:02:53.494Z,977.91
2017-09-09T00:03:53.436Z,977.93
2017-09-09T00:04:53.488Z,977.93
2017-09-09T00:05:53.495Z,977.89
2017-09-09T00:06:53.446Z,977.92
2017-09-09T00:07:53.494Z,977.87
2017-09-09T00:08:52.743Z,977.84
2017-09-09T00:09:52.802Z,977.85
2017-09-09T00:10:52.873Z,977.85
2017-09-09T00:11:52.829Z,977.83
2017-09-09T00:12:52.777Z,977.84
2017-09-09T00:13:52.835Z,977.84
2017-09-09T00:14:52.883Z,977.86
2017-09-09T00:15:52.867Z,977.77
2017-09-09T00:16:52.752Z,977.77
2017-09-09T00:17:54.295Z,977.75
2017-09-09T00:18:54.080Z,977.73
2017-09-09T00:19:53.515Z,977.69
2017-09-09T00:20:53.552Z,977.71
2017-09-09T00:21:53.489Z,977.66
2017-09-09T00:22:53.530Z,977.65
2017-09-09T00:23:53.475Z,977.65
2017-09-09T00:24:53.519Z,977.68
2017-09-09T00:25:52.854Z,977.67
2017-09-09T00:26:52.903Z,977.65
2017-09-09T00:27:52.857Z,977.60
2017-09-09T00:28:52.934Z,977.63
2017-09-09T00:29:52.897Z,977.59
2017-09-09T00:30:52.882Z,977.55
2017-09-09T00:31:52.846Z,977.59
2017-09-09T00:32:52.909Z,977.58
2017-09-09T00:33:52.852Z,977.63
2017-09-09T00:34:54.040Z,977.73
2017-09-09T00:35:54.225Z,977.58
2017-09-09T00:36:53.600Z,977.56
2017-09-09T00:37:53.733Z,977.59
2017-09-09T00:38:53.485Z,977.57
2017-09-09T00:39:53.635Z,977.58
2017-09-09T00:40:53.781Z,977.54
2017-09-09T00:41:53.637Z,977.54
2017-09-09T00:42:53.678Z,977.49
2017-09-09T00:43:53.718Z,977.50
2017-09-09T00:44:52.858Z,977.42
2017-09-09T00:45:52.902Z,977.45
2017-09-09T00:46:53.052Z,977.41
2017-09-09T00:47:53.008Z,977.42
2017-09-09T00:48:52.865Z,977.35
2017-09-09T00:49:52.857Z,977.38
2017-09-09T00:50:54.305Z,977.38
2017-09-09T00:51:54.163Z,977.35
2017-09-09T00:52:54.313Z,977.35
2017-09-09T00:53:53.677Z,977.28
2017-09-09T00:54:54.150Z,977.32
2017-09-09T00:55:53.515Z,977.35
2017-09-09T00:56:53.674Z,977.34
2017-09-09T00:57:53.723Z,977.35
2017-09-09T00:58:53.570Z,977.32
2017-09-09T00:59:52.911Z,977.34
2017-09-09T01:03:17.785Z,977.31
2017-09-09T01:03:18.900Z,977.27
2017-09-09T01:03:20.007Z,977.26
2017-09-09T01:05:53.761Z,977.24
2017-09-09T01:05:54.770Z,977.28
2017-09-09T01:05:56.392Z,977.28
2017-09-09T01:08:33.041Z,977.20
2017-09-09T01:08:34.259Z,977.21
2017-09-09T01:08:53.009Z,977.13
2017-09-09T01:11:47.291Z,977.26
2017-09-09T01:11:48.608Z,977.26
2017-09-09T01:11:53.031Z,977.23
2017-09-09T01:14:33.189Z,977.26
2017-09-09T01:14:34.404Z,977.14
2017-09-09T01:14:52.959Z,977.30
2017-09-09T01:17:48.363Z,977.20
2017-09-09T01:17:49.677Z,977.21
2017-09-09T01:17:52.994Z,977.21
2017-09-09T01:20:32.788Z,977.15
2017-09-09T01:20:33.700Z,977.18
2017-09-09T01:20:53.062Z,977.16
2017-09-09T01:23:53.902Z,977.18
2017-09-09T01:23:55.121Z,977.05
2017-09-09T01:23:56.340Z,977.01
2017-09-09T01:27:08.606Z,977.04
2017-09-09T01:27:09.823Z,976.97
2017-09-09T01:27:10.934Z,976.99
2017-09-09T01:29:54.287Z,976.98
2017-09-09T01:29:55.606Z,976.93
2017-09-09T01:29:56.618Z,976.87
2017-09-09T01:32:33.112Z,976.86
2017-09-09T01:32:34.430Z,976.84
2017-09-09T01:32:53.085Z,976.90
2017-09-09T01:35:55.249Z,976.84
2017-09-09T01:35:56.467Z,976.90
2017-09-09T01:35:57.378Z,976.88
2017-09-09T01:39:08.538Z,976.81
2017-09-09T01:39:09.853Z,976.88
2017-09-09T01:39:10.763Z,976.90
2017-09-09T01:41:55.853Z,976.87
2017-09-09T01:41:57.071Z,976.84
2017-09-09T01:41:58.080Z,976.88
2017-09-09T01:45:09.298Z,976.82
2017-09-09T01:45:10.424Z,976.86
2017-09-09T01:45:11.535Z,976.84
2017-09-09T01:47:46.104Z,976.76
2017-09-09T01:47:47.423Z,976.76
2017-09-09T01:47:53.252Z,976.72
2017-09-09T01:51:03.530Z,976.71
2017-09-09T01:51:04.580Z,976.73
2017-09-09T01:51:05.807Z,976.75
2017-09-09T01:53:51.248Z,976.71
2017-09-09T01:53:52.156Z,976.70
2017-09-09T01:53:53.580Z,976.71
2017-09-09T01:57:04.555Z,976.64
2017-09-09T01:57:05.600Z,976.67
2017-09-09T01:57:06.817Z,976.59
2017-09-09T01:59:55.913Z,976.64
2017-09-09T01:59:56.823Z,976.62
2017-09-09T01:59:58.241Z,976.51
2017-09-09T02:00:53.116Z,976.53
2017-09-09T02:01:54.381Z,976.48
2017-09-09T02:02:54.433Z,976.57
2017-09-09T02:03:53.896Z,976.52
2017-09-09T02:04:53.844Z,976.51
2017-09-09T02:05:53.899Z,976.53
2017-09-09T02:06:53.753Z,976.49
2017-09-09T02:07:53.800Z,976.44
2017-09-09T02:08:53.851Z,976.47
2017-09-09T02:09:53.191Z,976.46
2017-09-09T02:10:53.164Z,976.44
2017-09-09T02:11:53.184Z,976.36
2017-09-09T02:12:53.134Z,976.41
2017-09-09T02:13:53.189Z,976.38
2017-09-09T02:14:53.140Z,976.37
2017-09-09T02:15:53.186Z,976.36
2017-09-09T02:16:53.335Z,976.40
2017-09-09T02:17:53.281Z,976.33
2017-09-09T02:18:53.225Z,976.31
2017-09-09T02:19:54.577Z,976.30
2017-09-09T02:20:53.926Z,976.33
2017-09-09T02:21:54.476Z,976.30
2017-09-09T02:22:53.814Z,976.25
2017-09-09T02:23:53.772Z,976.21
2017-09-09T02:24:54.103Z,976.21
2017-09-09T02:25:53.972Z,976.18
2017-09-09T02:26:54.023Z,976.11
2017-09-09T02:27:53.869Z,976.18
2017-09-09T02:28:53.213Z,976.14
2017-09-09T02:29:53.284Z,976.14
2017-09-09T02:30:53.259Z,976.05
2017-09-09T02:31:53.219Z,976.11
2017-09-09T02:32:53.275Z,976.05
2017-09-09T02:33:53.231Z,976.09
2017-09-09T02:34:53.279Z,976.05
2017-09-09T02:35:54.133Z,976.07
2017-09-09T02:36:54.503Z,976.10
2017-09-09T02:37:53.949Z,976.04
2017-09-09T02:38:53.997Z,976.01
2017-09-09T02:39:53.842Z,976.08
2017-09-09T02:40:53.880Z,976.04
2017-09-09T02:41:53.936Z,976.04
2017-09-09T02:42:53.978Z,976.03
2017-09-09T02:43:54.128Z,976.06
2017-09-09T02:44:53.261Z,975.99
2017-09-09T02:45:53.335Z,976.03
2017-09-09T02:46:53.300Z,975.95
2017-09-09T02:47:53.261Z,975.99
2017-09-09T02:48:53.311Z,975.98
2017-09-09T02:49:53.368Z,975.96
2017-09-09T02:50:53.323Z,975.88
2017-09-09T02:51:53.383Z,975.93
2017-09-09T02:52:53.429Z,975.91
2017-09-09T02:53:53.377Z,975.90
2017-09-09T02:54:53.322Z,975.88
2017-09-09T02:55:54.586Z,975.92
2017-09-09T02:56:54.027Z,975.96
2017-09-09T02:57:53.906Z,975.83
2017-09-09T02:58:53.951Z,975.90
2017-09-09T02:59:53.907Z,975.93
2017-09-09T03:00:54.060Z,975.87
2017-09-09T03:01:54.035Z,975.88
2017-09-09T03:02:53.984Z,975.84
2017-09-09T03:03:53.322Z,975.86
2017-09-09T03:04:53.364Z,975.83
2017-09-09T03:05:53.317Z,975.82
2017-09-09T03:06:53.368Z,975.84
2017-09-09T03:07:53.516Z,975.86
2017-09-09T03:08:53.623Z,975.82
2017-09-09T03:09:53.373Z,975.77
2017-09-09T03:10:54.732Z,975.80
2017-09-09T03:11:54.781Z,975.80
2017-09-09T03:12:54.635Z,975.70
2017-09-09T03:13:54.584Z,975.73
2017-09-09T03:14:54.633Z,975.82
2017-09-09T03:15:53.973Z,975.80
2017-09-09T03:16:54.016Z,975.72
2017-09-09T03:17:54.063Z,975.59
2017-09-09T03:18:54.006Z,975.67
2017-09-09T03:19:54.255Z,975.74
2017-09-09T03:20:53.398Z,975.71
2017-09-09T03:21:53.447Z,975.69
2017-09-09T03:22:53.507Z,975.71
2017-09-09T03:23:53.466Z,975.69
2017-09-09T03:24:53.418Z,975.67
2017-09-09T03:25:53.490Z,975.71
2017-09-09T03:26:53.440Z,975.69
2017-09-09T03:27:53.393Z,975.67
2017-09-09T03:28:46.336Z,975.67
2017-09-09T03:31:01.094Z,975.60
2017-09-09T03:31:02.010Z,975.60
2017-09-09T03:31:03.436Z,975.56
2017-09-09T03:31:53.455Z,975.52
2017-09-09T03:32:54.706Z,975.53
2017-09-09T03:33:54.053Z,975.61
2017-09-09T03:34:54.097Z,975.56
2017-09-09T03:35:54.043Z,975.58
2017-09-09T03:36:54.092Z,975.53
2017-09-09T03:37:53.456Z,975.58
2017-09-09T03:38:53.423Z,975.60
2017-09-09T03:39:53.479Z,975.53
2017-09-09T03:40:53.449Z,975.58
2017-09-09T03:41:53.423Z,975.54
2017-09-09T03:42:53.460Z,975.61
2017-09-09T03:43:53.519Z,975.59
2017-09-09T03:44:53.477Z,975.57
2017-09-09T03:45:54.636Z,975.59
2017-09-09T03:46:54.684Z,975.53
2017-09-09T03:47:54.128Z,975.49
2017-09-09T03:48:54.072Z,975.46
2017-09-09T03:49:54.214Z,975.47
2017-09-09T03:50:54.157Z,975.52
2017-09-09T03:51:54.102Z,975.50
2017-09-09T03:52:54.242Z,975.48
2017-09-09T03:53:54.089Z,975.48
2017-09-09T03:54:53.529Z,975.44
2017-09-09T03:55:53.561Z,975.39
2017-09-09T03:56:53.520Z,975.43
2017-09-09T03:57:53.477Z,975.42
2017-09-09T03:58:53.520Z,975.40
2017-09-09T03:59:53.586Z,975.45
2017-09-09T04:00:53.545Z,975.48
2017-09-09T04:01:53.488Z,975.43
2017-09-09T04:02:54.734Z,975.48
2017-09-09T04:03:54.168Z,975.43
2017-09-09T04:04:54.716Z,975.45
2017-09-09T04:05:54.862Z,975.39
2017-09-09T04:06:54.111Z,975.41
2017-09-09T04:07:54.151Z,975.46
2017-09-09T04:08:54.282Z,975.34
2017-09-09T04:09:54.216Z,975.39
2017-09-09T04:10:54.258Z,975.37
2017-09-09T04:11:54.206Z,975.35
2017-09-09T04:12:53.571Z,975.34
2017-09-09T04:13:53.642Z,975.34
2017-09-09T04:14:53.602Z,975.32
2017-09-09T04:15:53.592Z,975.38
2017-09-09T04:16:53.565Z,975.30
2017-09-09T04:17:53.607Z,975.36
2017-09-09T04:18:53.652Z,975.43
2017-09-09T04:19:53.620Z,975.36
2017-09-09T04:20:54.773Z,975.33
2017-09-09T04:21:54.823Z,975.40
2017-09-09T04:22:54.890Z,975.30
2017-09-09T04:23:54.331Z,975.34
2017-09-09T04:24:54.174Z,975.34
2017-09-09T04:25:54.670Z,975.26
2017-09-09T04:26:54.313Z,975.23
2017-09-09T04:27:54.350Z,975.27
2017-09-09T04:28:54.289Z,975.17
2017-09-09T04:29:53.631Z,975.24
2017-09-09T04:30:53.678Z,975.30
2017-09-09T04:31:53.627Z,975.29
2017-09-09T04:32:53.674Z,975.34
2017-09-09T04:33:53.648Z,975.33
2017-09-09T04:34:53.603Z,975.28
2017-09-09T04:35:53.684Z,975.27
2017-09-09T04:36:53.643Z,975.25
2017-09-09T04:37:54.935Z,975.20
2017-09-09T04:38:54.900Z,975.26
2017-09-09T04:39:54.883Z,975.22
2017-09-09T04:40:54.370Z,975.18
2017-09-09T04:41:54.239Z,975.13
2017-09-09T04:42:54.301Z,975.19
2017-09-09T04:43:54.303Z,975.21
2017-09-09T04:44:54.335Z,975.22
2017-09-09T04:45:54.430Z,975.18
2017-09-09T04:46:54.512Z,975.18
2017-09-09T04:47:53.689Z,975.16
2017-09-09T04:48:53.662Z,975.13
2017-09-09T04:49:53.739Z,975.10
2017-09-09T04:50:53.721Z,975.12
2017-09-09T04:51:53.661Z,975.00
2017-09-09T04:52:53.699Z,974.98
2017-09-09T04:53:53.691Z,975.03
2017-09-09T04:54:54.872Z,975.02
2017-09-09T04:55:54.359Z,974.96
2017-09-09T04:56:54.916Z,974.93
2017-09-09T04:57:54.980Z,974.98
2017-09-09T04:58:54.333Z,975.00
2017-09-09T04:59:54.287Z,974.98
2017-09-09T05:00:54.375Z,974.95
2017-09-09T05:01:54.447Z,974.92
2017-09-09T05:02:54.397Z,974.96
2017-09-09T05:03:53.736Z,974.91
2017-09-09T05:04:53.795Z,974.81
2017-09-09T05:05:53.769Z,974.87
2017-09-09T05:06:53.808Z,974.83
2017-09-09T05:07:53.824Z,974.85
2017-09-09T05:08:53.707Z,974.74
2017-09-09T05:09:53.780Z,974.80
2017-09-09T05:10:53.765Z,974.79
2017-09-09T05:11:55.056Z,974.75
2017-09-09T05:12:55.021Z,974.77
2017-09-09T05:13:54.378Z,974.77
2017-09-09T05:14:54.998Z,974.85
2017-09-09T05:15:54.376Z,974.79
2017-09-09T05:16:55.054Z,974.89
2017-09-09T05:17:54.456Z,974.80
2017-09-09T05:18:54.451Z,974.85
2017-09-09T05:19:54.489Z,974.80
2017-09-09T05:20:54.421Z,974.83
2017-09-09T05:21:53.786Z,974.84
2017-09-09T05:22:53.861Z,974.84
2017-09-09T05:23:53.822Z,974.72
2017-09-09T05:24:53.801Z,974.78
2017-09-09T05:25:53.800Z,974.81
2017-09-09T05:26:53.784Z,974.81
2017-09-09T05:27:53.763Z,974.89
2017-09-09T05:28:55.041Z,974.87
2017-09-09T05:29:55.037Z,974.91
2017-09-09T05:30:58.702Z,974.96
2017-09-09T05:31:53.805Z,974.87
2017-09-09T05:32:55.112Z,974.84
2017-09-09T05:33:54.427Z,974.92
2017-09-09T05:34:54.435Z,974.82
2017-09-09T05:35:54.466Z,974.86
2017-09-09T05:36:54.439Z,974.91
2017-09-09T05:37:54.454Z,974.98
2017-09-09T05:38:54.547Z,974.92
2017-09-09T05:39:53.892Z,974.94
2017-09-09T05:40:53.928Z,974.88
2017-09-09T05:41:53.828Z,974.92
2017-09-09T05:42:53.892Z,974.95
2017-09-09T05:43:53.853Z,975.03
2017-09-09T05:44:53.932Z,974.98
2017-09-09T05:45:53.962Z,975.01
2017-09-09T05:46:53.839Z,974.98
2017-09-09T05:47:55.122Z,975.09
2017-09-09T05:48:54.564Z,975.01
2017-09-09T05:49:54.555Z,975.00
2017-09-09T05:50:54.460Z,974.96
2017-09-09T05:51:54.455Z,974.96
2017-09-09T05:52:54.615Z,975.01
2017-09-09T05:53:54.460Z,975.07
2017-09-09T05:54:54.523Z,975.15
2017-09-09T05:55:53.885Z,975.09
2017-09-09T05:56:53.888Z,975.06
2017-09-09T05:57:53.943Z,975.01
2017-09-09T05:58:53.933Z,975.08
2017-09-09T05:59:53.891Z,974.99
2017-09-09T06:00:53.946Z,974.95
2017-09-09T06:01:53.932Z,974.93
2017-09-09T06:02:53.972Z,974.93
2017-09-09T06:03:53.922Z,974.89
2017-09-09T06:04:55.172Z,974.93
2017-09-09T06:05:55.128Z,975.01
2017-09-09T06:06:55.161Z,974.89
2017-09-09T06:07:54.495Z,974.96
2017-09-09T06:08:54.538Z,974.86
2017-09-09T06:09:54.679Z,974.83
2017-09-09T06:10:54.627Z,974.88
2017-09-09T06:11:54.575Z,974.89
2017-09-09T06:12:54.619Z,974.89
2017-09-09T06:13:53.957Z,974.85
2017-09-09T06:14:54.030Z,974.87
2017-09-09T06:15:53.986Z,975.00
2017-09-09T06:16:54.025Z,974.88
2017-09-09T06:17:53.975Z,974.86
2017-09-09T06:18:53.927Z,974.76
2017-09-09T06:19:55.175Z,974.67
2017-09-09T06:20:55.331Z,974.84
2017-09-09T06:21:55.174Z,974.73
2017-09-09T06:22:55.218Z,974.69
2017-09-09T06:23:55.269Z,974.76
2017-09-09T06:24:55.616Z,974.74
2017-09-09T06:25:54.588Z,974.72
2017-09-09T06:26:54.635Z,974.73
2017-09-09T06:27:54.594Z,974.69
2017-09-09T06:28:54.758Z,974.58
2017-09-09T06:29:54.617Z,974.63
2017-09-09T06:30:54.782Z,974.63
2017-09-09T06:31:54.038Z,974.70
2017-09-09T06:32:54.015Z,974.62
2017-09-09T06:33:54.068Z,974.65
2017-09-09T06:34:54.051Z,974.55
2017-09-09T06:35:54.083Z,974.60
2017-09-09T06:36:54.038Z,974.55
2017-09-09T06:37:54.037Z,974.51
2017-09-09T06:38:55.398Z,974.56
2017-09-09T06:39:55.261Z,974.42
2017-09-09T06:40:54.719Z,974.40
2017-09-09T06:41:55.280Z,974.45
2017-09-09T06:42:54.648Z,974.43
2017-09-09T06:43:54.701Z,974.46
2017-09-09T06:44:54.764Z,974.46
2017-09-09T06:45:54.722Z,974.45
2017-09-09T06:46:54.775Z,974.54
2017-09-09T06:47:55.119Z,974.45
2017-09-09T06:48:54.978Z,974.36
2017-09-09T06:49:54.124Z,974.28
2017-09-09T06:50:54.118Z,974.22
2017-09-09T06:51:54.087Z,974.28
2017-09-09T06:52:54.164Z,974.36
2017-09-09T06:53:54.115Z,974.36
2017-09-09T06:54:54.156Z,974.36
2017-09-09T06:55:54.095Z,974.30
2017-09-09T06:56:55.340Z,974.26
2017-09-09T06:57:55.309Z,974.23
2017-09-09T06:58:54.749Z,974.29
2017-09-09T06:59:54.693Z,974.26
2017-09-09T07:00:54.754Z,974.20
2017-09-09T07:01:54.701Z,974.27
2017-09-09T07:02:54.754Z,974.17
2017-09-09T07:03:54.793Z,974.25
2017-09-09T07:04:54.733Z,974.23
2017-09-09T07:05:54.172Z,974.24
2017-09-09T07:06:54.120Z,974.21
2017-09-09T07:07:54.263Z,974.20
2017-09-09T07:08:54.121Z,974.15
2017-09-09T07:09:54.171Z,974.18
2017-09-09T07:10:54.137Z,974.15
2017-09-09T07:11:54.180Z,974.14
2017-09-09T07:12:54.120Z,974.11
2017-09-09T07:13:55.394Z,974.10
2017-09-09T07:14:55.436Z,974.16
2017-09-09T07:15:55.383Z,974.18
2017-09-09T07:16:55.419Z,974.20
2017-09-09T07:17:54.759Z,974.16
2017-09-09T07:18:54.898Z,974.08
2017-09-09T07:19:54.751Z,974.15
2017-09-09T07:20:54.806Z,974.06
2017-09-09T07:21:54.153Z,974.07
2017-09-09T07:22:54.831Z,974.11
2017-09-09T07:23:54.942Z,973.97
2017-09-09T07:24:54.208Z,974.08
2017-09-09T07:25:54.206Z,974.09
2017-09-09T07:26:54.238Z,974.12
2017-09-09T07:27:54.258Z,974.11
2017-09-09T07:28:54.187Z,974.15
2017-09-09T07:29:54.249Z,974.22
2017-09-09T07:30:54.232Z,974.19
2017-09-09T07:31:55.420Z,974.13
2017-09-09T07:32:55.508Z,974.08
2017-09-09T07:33:55.453Z,974.24
2017-09-09T07:34:55.595Z,974.11
2017-09-09T07:35:54.876Z,974.20
2017-09-09T07:36:54.932Z,974.09
2017-09-09T07:37:54.885Z,974.16
2017-09-09T07:38:54.921Z,974.19
2017-09-09T07:39:54.255Z,974.17
2017-09-09T07:40:54.301Z,974.14
2017-09-09T07:41:54.290Z,974.17
2017-09-09T07:42:54.237Z,974.19
2017-09-09T07:43:54.288Z,974.23
2017-09-09T07:44:54.335Z,974.33
2017-09-09T07:45:54.404Z,974.30
2017-09-09T07:46:54.336Z,974.38
2017-09-09T07:47:54.276Z,974.34
2017-09-09T07:48:55.630Z,974.26
2017-09-09T07:49:55.487Z,974.28
2017-09-09T07:50:55.531Z,974.31
2017-09-09T07:51:54.988Z,974.32
2017-09-09T07:52:54.954Z,974.37
2017-09-09T07:53:55.012Z,974.33
2017-09-09T07:54:55.031Z,974.32
2017-09-09T07:55:55.078Z,974.29
2017-09-09T07:56:54.943Z,974.33
2017-09-09T07:57:54.289Z,974.32
2017-09-09T07:58:54.283Z,974.34
2017-09-09T07:59:54.444Z,974.34
2017-09-09T08:00:54.322Z,974.33
2017-09-09T08:01:54.369Z,974.35
2017-09-09T08:02:54.422Z,974.36
2017-09-09T08:03:54.366Z,974.39
2017-09-09T08:04:54.305Z,974.45
2017-09-09T08:05:55.852Z,974.53
2017-09-09T08:06:55.605Z,974.48
2017-09-09T08:07:55.686Z,974.55
2017-09-09T08:08:55.020Z,974.60
2017-09-09T08:09:55.572Z,974.78
2017-09-09T08:10:55.107Z,974.79
2017-09-09T08:11:54.949Z,974.84
2017-09-09T08:12:55.087Z,974.80
2017-09-09T08:13:55.029Z,974.70
2017-09-09T08:14:54.969Z,974.77
2017-09-09T08:15:55.010Z,974.81
2017-09-09T08:16:55.049Z,974.83
2017-09-09T08:17:54.395Z,974.79
2017-09-09T08:18:54.450Z,974.89
2017-09-09T08:19:54.410Z,974.91
2017-09-09T08:20:54.407Z,974.91
2017-09-09T08:21:54.407Z,974.88
2017-09-09T08:22:54.403Z,974.89
2017-09-09T08:23:54.495Z,974.95
2017-09-09T08:24:54.376Z,974.87
2017-09-09T08:25:55.617Z,974.83
2017-09-09T08:26:55.091Z,974.81
2017-09-09T08:27:55.646Z,974.81
2017-09-09T08:28:55.026Z,974.74
2017-09-09T08:29:55.416Z,974.56
2017-09-09T08:30:55.122Z,974.67
2017-09-09T08:31:55.177Z,974.56
2017-09-09T08:32:55.042Z,974.54
2017-09-09T08:33:54.392Z,974.50
2017-09-09T08:34:54.466Z,974.51
2017-09-09T08:35:54.473Z,974.53
2017-09-09T08:36:54.422Z,974.48
2017-09-09T08:37:54.406Z,974.49
2017-09-09T08:38:54.449Z,974.47
2017-09-09T08:39:54.423Z,974.52
2017-09-09T08:40:54.479Z,974.53
2017-09-09T08:41:54.434Z,974.50
2017-09-09T08:42:55.692Z,974.52
2017-09-09T08:43:54.942Z,974.49
2017-09-09T08:44:55.700Z,974.37
2017-09-09T08:45:55.755Z,974.41
2017-09-09T08:46:55.111Z,974.41
2017-09-09T08:47:55.813Z,974.39
2017-09-09T08:48:55.077Z,974.33
2017-09-09T08:49:55.127Z,974.37
2017-09-09T08:50:55.146Z,974.46
2017-09-09T08:51:54.492Z,974.54
2017-09-09T08:52:54.538Z,974.67
2017-09-09T08:53:55.225Z,974.66
2017-09-09T08:54:55.296Z,974.60
2017-09-09T08:55:54.462Z,974.65
2017-09-09T08:56:54.538Z,974.66
2017-09-09T08:57:54.629Z,974.74
2017-09-09T08:58:54.524Z,974.76
2017-09-09T08:59:55.809Z,974.77
2017-09-09T09:00:55.697Z,974.84
2017-09-09T09:01:55.869Z,974.77
2017-09-09T09:02:55.747Z,974.59
2017-09-09T09:03:55.807Z,974.71
2017-09-09T09:04:55.854Z,974.72
2017-09-09T09:05:55.415Z,974.80
2017-09-09T09:06:55.214Z,974.71
2017-09-09T09:07:55.128Z,974.66
2017-09-09T09:08:55.187Z,974.70
2017-09-09T09:09:54.552Z,974.79
2017-09-09T09:10:54.519Z,974.73
2017-09-09T09:11:54.576Z,974.68
2017-09-09T09:12:54.562Z,974.76
2017-09-09T09:13:55.654Z,974.83
2017-09-09T09:14:54.561Z,974.85
2017-09-09T09:15:54.577Z,974.89
2017-09-09T09:16:54.768Z,974.78
2017-09-09T09:17:54.550Z,974.91
2017-09-09T09:18:56.024Z,974.92
2017-09-09T09:19:55.893Z,974.98
2017-09-09T09:20:55.835Z,974.88
2017-09-09T09:21:55.891Z,974.96
2017-09-09T09:22:55.336Z,974.89
2017-09-09T09:23:55.414Z,974.86
2017-09-09T09:24:55.289Z,974.82
2017-09-09T09:25:55.162Z,974.85
2017-09-09T09:26:55.357Z,974.85
2017-09-09T09:27:55.340Z,974.85
2017-09-09T09:28:54.655Z,974.87
2017-09-09T09:29:54.715Z,974.93
2017-09-09T09:30:54.690Z,974.85
2017-09-09T09:31:54.663Z,974.93
2017-09-09T09:32:54.735Z,974.94
2017-09-09T09:33:54.686Z,974.92
2017-09-09T09:34:54.735Z,974.98
2017-09-09T09:35:54.583Z,975.06
2017-09-09T09:36:55.964Z,975.07
2017-09-09T09:37:56.263Z,975.07
2017-09-09T09:38:55.398Z,975.09
2017-09-09T09:39:55.269Z,975.21
2017-09-09T09:40:56.040Z,975.30
2017-09-09T09:41:55.404Z,975.33
2017-09-09T09:42:55.347Z,975.44
2017-09-09T09:44:00.305Z,975.44
2017-09-09T09:44:54.730Z,975.37
2017-09-09T09:45:55.550Z,975.39
2017-09-09T09:46:55.571Z,975.28
2017-09-09T09:47:55.501Z,975.39
2017-09-09T09:48:55.498Z,975.36
2017-09-09T09:49:55.376Z,975.28
2017-09-09T09:50:55.601Z,975.31
2017-09-09T09:51:55.575Z,975.36
2017-09-09T09:52:56.142Z,975.36
2017-09-09T09:53:56.197Z,975.34
2017-09-09T09:54:55.677Z,975.36
2017-09-09T09:55:55.745Z,975.41
2017-09-09T09:56:55.430Z,975.74
2017-09-09T09:57:55.490Z,975.69
2017-09-09T09:58:55.355Z,975.75
2017-09-09T09:59:55.614Z,975.54
2017-09-09T10:00:55.725Z,975.51
2017-09-09T10:01:55.676Z,975.27
2017-09-09T10:02:55.341Z,975.32
2017-09-09T10:03:55.424Z,975.48
2017-09-09T10:04:54.781Z,975.50
2017-09-09T10:05:55.662Z,975.54
2017-09-09T10:06:54.789Z,975.45
2017-09-09T10:07:54.810Z,975.50
2017-09-09T10:08:54.907Z,975.48
2017-09-09T10:09:54.766Z,975.58
2017-09-09T10:10:54.923Z,975.51
2017-09-09T10:11:55.044Z,975.50
2017-09-09T10:12:55.097Z,975.48
2017-09-09T10:13:55.009Z,975.60
2017-09-09T10:14:54.958Z,975.56
2017-09-09T10:15:54.909Z,975.54
2017-09-09T10:16:56.241Z,975.50
2017-09-09T10:17:55.617Z,975.61
2017-09-09T10:18:55.725Z,975.57
2017-09-09T10:19:55.673Z,975.56
2017-09-09T10:20:55.449Z,975.59
2017-09-09T10:21:54.744Z,975.61
2017-09-09T10:22:55.769Z,975.66
2017-09-09T10:23:54.834Z,975.76
2017-09-09T10:24:55.765Z,975.80
2017-09-09T10:25:54.787Z,975.87
2017-09-09T10:26:54.913Z,975.85
2017-09-09T10:27:54.813Z,975.73
2017-09-09T10:28:54.781Z,975.81
2017-09-09T10:29:55.985Z,975.77
2017-09-09T10:30:56.068Z,975.80
2017-09-09T10:31:55.448Z,975.84
2017-09-09T10:32:56.041Z,975.82
2017-09-09T10:33:56.215Z,975.78
2017-09-09T10:34:55.528Z,975.66
2017-09-09T10:35:56.208Z,975.70
2017-09-09T10:36:55.669Z,975.68
2017-09-09T10:37:55.827Z,975.68
2017-09-09T10:38:55.649Z,975.66
2017-09-09T10:39:56.016Z,975.63
2017-09-09T10:40:54.974Z,975.68
2017-09-09T10:41:55.028Z,975.72
2017-09-09T10:42:54.882Z,975.72
2017-09-09T10:43:54.869Z,975.75
2017-09-09T10:44:55.132Z,975.66
2017-09-09T10:45:54.846Z,975.57
2017-09-09T10:46:56.329Z,975.67
2017-09-09T10:47:56.405Z,975.62
2017-09-09T10:48:56.398Z,975.74
2017-09-09T10:49:56.516Z,975.75
2017-09-09T10:50:55.601Z,975.72
2017-09-09T10:51:55.645Z,975.80
2017-09-09T10:52:56.463Z,975.79
2017-09-09T10:53:55.736Z,975.73
2017-09-09T10:54:55.491Z,975.75
2017-09-09T10:55:55.610Z,975.70
2017-09-09T10:56:54.904Z,975.70
2017-09-09T10:57:54.941Z,975.69
2017-09-09T10:58:55.016Z,975.57
2017-09-09T10:59:54.909Z,975.65
2017-09-09T11:00:54.913Z,975.62
2017-09-09T11:01:54.935Z,975.57
2017-09-09T11:02:54.942Z,975.65
2017-09-09T11:03:54.906Z,975.59
2017-09-09T11:04:54.930Z,975.62
2017-09-09T11:05:56.159Z,975.56
2017-09-09T11:06:56.180Z,975.66
2017-09-09T11:07:55.739Z,975.57
2017-09-09T11:08:55.554Z,975.73
2017-09-09T11:09:55.705Z,975.78
2017-09-09T11:10:55.766Z,975.69
2017-09-09T11:11:55.679Z,975.65
2017-09-09T11:12:55.594Z,975.73
2017-09-09T11:13:56.252Z,975.67
2017-09-09T11:14:55.667Z,975.77
2017-09-09T11:15:54.963Z,975.78
2017-09-09T11:16:55.005Z,975.86
2017-09-09T11:17:55.201Z,975.90
2017-09-09T11:18:55.062Z,975.95
2017-09-09T11:19:55.254Z,975.91
2017-09-09T11:20:55.130Z,975.85
2017-09-09T11:21:55.128Z,975.87
2017-09-09T11:22:55.393Z,975.85
2017-09-09T11:23:55.064Z,975.92
2017-09-09T11:24:56.517Z,975.90
2017-09-09T11:25:56.387Z,975.90
2017-09-09T11:26:56.146Z,975.83
2017-09-09T11:27:55.629Z,975.90
2017-09-09T11:28:56.114Z,975.98
2017-09-09T11:29:55.597Z,975.96
2017-09-09T11:30:56.019Z,975.97
2017-09-09T11:31:55.037Z,976.00
2017-09-09T11:32:56.260Z,975.90
2017-09-09T11:33:55.054Z,975.89
2017-09-09T11:34:55.057Z,975.89
2017-09-09T11:35:55.191Z,975.87
2017-09-09T11:36:56.087Z,975.87
2017-09-09T11:37:55.059Z,975.89
2017-09-09T11:38:55.052Z,975.96
2017-09-09T11:39:55.012Z,976.01
2017-09-09T11:40:56.303Z,976.01
2017-09-09T11:41:56.341Z,975.93
2017-09-09T11:42:56.352Z,976.01
2017-09-09T11:43:55.935Z,975.92
2017-09-09T11:44:56.586Z,975.92
2017-09-09T11:45:56.433Z,975.99
2017-09-09T11:46:55.894Z,975.93
2017-09-09T11:47:55.978Z,975.91
2017-09-09T11:48:55.803Z,975.97
2017-09-09T11:49:55.871Z,975.97
2017-09-09T11:50:55.848Z,975.90
2017-09-09T11:51:55.105Z,975.80
2017-09-09T11:52:55.067Z,975.81
2017-09-09T11:53:55.233Z,975.86
2017-09-09T11:54:55.096Z,975.97
2017-09-09T11:55:55.157Z,975.97
2017-09-09T11:56:55.121Z,975.95
2017-09-09T11:57:55.952Z,976.06
2017-09-09T11:58:56.154Z,976.09
2017-09-09T11:59:56.537Z,976.03
2017-09-09T12:00:56.325Z,976.09
2017-09-09T12:01:56.396Z,976.08
2017-09-09T12:02:55.735Z,976.08
2017-09-09T12:03:55.823Z,975.97
2017-09-09T12:04:55.706Z,976.06
2017-09-09T12:05:55.698Z,975.99
2017-09-09T12:06:55.101Z,975.97
2017-09-09T12:07:56.010Z,975.99
2017-09-09T12:08:55.953Z,976.05
2017-09-09T12:09:55.077Z,975.99
2017-09-09T12:10:56.061Z,975.90
2017-09-09T12:11:55.301Z,975.86
2017-09-09T12:12:55.215Z,975.88
2017-09-09T12:13:55.316Z,975.74
2017-09-09T12:14:55.173Z,975.86
2017-09-09T12:15:56.463Z,975.89
2017-09-09T12:16:56.096Z,975.92
2017-09-09T12:17:56.696Z,975.99
2017-09-09T12:18:56.508Z,975.95
2017-09-09T12:19:55.766Z,975.95
2017-09-09T12:20:55.977Z,976.01
2017-09-09T12:21:55.745Z,976.01
2017-09-09T12:22:56.150Z,976.05
2017-09-09T12:23:55.833Z,975.96
2017-09-09T12:24:56.105Z,976.00
2017-09-09T12:25:55.875Z,976.05
2017-09-09T12:26:56.038Z,976.09
2017-09-09T12:27:55.176Z,976.04